sensor_id;sensor_type;location;lat;lon;timestamp;P1;durP1;ratioP1;P2;durP2;ratioP2
80409;SDS011;69746;45.596;10.154;2023-12-07T00:01:11;4.07;;;3.25;;
80409;SDS011;69746;45.596;10.154;2023-12-07T00:03:36;4.85;;;3.05;;
80409;SDS011;69746;45.596;10.154;2023-12-07T00:06:02;6.30;;;3.60;;
80409;SDS011;69746;45.596;10.154;2023-12-07T00:08:28;4.82;;;2.83;;
80409;SDS011;69746;45.596;10.154;2023-12-07T00:10:54;4.70;;;3.50;;
80409;SDS011;69746;45.596;10.154;2023-12-07T00:13:20;4.47;;;3.08;;
80409;SDS011;69746;45.596;10.154;2023-12-07T00:15:47;4.10;;;3.20;;
80409;SDS011;69746;45.596;10.154;2023-12-07T00:18:13;4.63;;;3.00;;
80409;SDS011;69746;45.596;10.154;2023-12-07T00:20:40;4.55;;;3.15;;
80409;SDS011;69746;45.596;10.154;2023-12-07T00:23:08;4.60;;;3.70;;
80409;SDS011;69746;45.596;10.154;2023-12-07T00:25:37;3.55;;;2.70;;
80409;SDS011;69746;45.596;10.154;2023-12-07T00:28:03;5.07;;;3.60;;
80409;SDS011;69746;45.596;10.154;2023-12-07T00:30:31;4.88;;;2.90;;
80409;SDS011;69746;45.596;10.154;2023-12-07T00:32:59;3.67;;;2.90;;
80409;SDS011;69746;45.596;10.154;2023-12-07T00:35:29;4.15;;;2.90;;
80409;SDS011;69746;45.596;10.154;2023-12-07T00:37:56;3.80;;;2.67;;
80409;SDS011;69746;45.596;10.154;2023-12-07T00:40:23;5.05;;;2.78;;
80409;SDS011;69746;45.596;10.154;2023-12-07T00:42:50;3.92;;;3.08;;
80409;SDS011;69746;45.596;10.154;2023-12-07T00:45:16;3.83;;;3.20;;
80409;SDS011;69746;45.596;10.154;2023-12-07T00:47:43;4.82;;;2.80;;
80409;SDS011;69746;45.596;10.154;2023-12-07T00:50:11;3.65;;;2.83;;
80409;SDS011;69746;45.596;10.154;2023-12-07T00:52:39;4.15;;;3.13;;
80409;SDS011;69746;45.596;10.154;2023-12-07T00:55:05;4.82;;;3.00;;
80409;SDS011;69746;45.596;10.154;2023-12-07T00:57:32;3.72;;;2.60;;
80409;SDS011;69746;45.596;10.154;2023-12-07T00:59:58;4.13;;;3.15;;
80409;SDS011;69746;45.596;10.154;2023-12-07T01:02:24;3.50;;;2.38;;
80409;SDS011;69746;45.596;10.154;2023-12-07T01:04:50;3.58;;;2.88;;
80409;SDS011;69746;45.596;10.154;2023-12-07T01:07:16;3.85;;;2.90;;
80409;SDS011;69746;45.596;10.154;2023-12-07T01:09:42;4.25;;;3.00;;
80409;SDS011;69746;45.596;10.154;2023-12-07T01:12:08;4.00;;;2.83;;
80409;SDS011;69746;45.596;10.154;2023-12-07T01:14:35;3.50;;;2.70;;
80409;SDS011;69746;45.596;10.154;2023-12-07T01:17:01;3.53;;;2.80;;
80409;SDS011;69746;45.596;10.154;2023-12-07T01:19:27;3.90;;;2.80;;
80409;SDS011;69746;45.596;10.154;2023-12-07T01:21:53;4.03;;;2.90;;
80409;SDS011;69746;45.596;10.154;2023-12-07T01:24:19;3.42;;;2.53;;
80409;SDS011;69746;45.596;10.154;2023-12-07T01:26:45;3.80;;;2.95;;
80409;SDS011;69746;45.596;10.154;2023-12-07T01:29:11;3.88;;;2.50;;
80409;SDS011;69746;45.596;10.154;2023-12-07T01:31:38;4.13;;;2.33;;
80409;SDS011;69746;45.596;10.154;2023-12-07T01:34:03;3.72;;;3.03;;
80409;SDS011;69746;45.596;10.154;2023-12-07T01:36:29;3.72;;;2.60;;
80409;SDS011;69746;45.596;10.154;2023-12-07T01:38:55;3.42;;;2.70;;
80409;SDS011;69746;45.596;10.154;2023-12-07T01:41:21;3.70;;;2.70;;
80409;SDS011;69746;45.596;10.154;2023-12-07T01:43:47;3.92;;;2.85;;
80409;SDS011;69746;45.596;10.154;2023-12-07T01:46:13;5.00;;;2.75;;
80409;SDS011;69746;45.596;10.154;2023-12-07T01:48:40;5.53;;;3.47;;
80409;SDS011;69746;45.596;10.154;2023-12-07T01:51:06;4.00;;;2.80;;
80409;SDS011;69746;45.596;10.154;2023-12-07T01:53:33;3.75;;;2.70;;
80409;SDS011;69746;45.596;10.154;2023-12-07T01:55:59;4.10;;;2.13;;
80409;SDS011;69746;45.596;10.154;2023-12-07T01:58:25;3.97;;;2.78;;
80409;SDS011;69746;45.596;10.154;2023-12-07T02:00:52;4.00;;;2.80;;
80409;SDS011;69746;45.596;10.154;2023-12-07T02:03:18;3.60;;;2.58;;
80409;SDS011;69746;45.596;10.154;2023-12-07T02:05:46;3.22;;;2.53;;
80409;SDS011;69746;45.596;10.154;2023-12-07T02:08:13;3.40;;;2.60;;
80409;SDS011;69746;45.596;10.154;2023-12-07T02:10:39;3.92;;;2.90;;
80409;SDS011;69746;45.596;10.154;2023-12-07T02:13:05;3.47;;;2.47;;
80409;SDS011;69746;45.596;10.154;2023-12-07T02:15:32;3.75;;;2.83;;
80409;SDS011;69746;45.596;10.154;2023-12-07T02:23:18;3.58;;;2.70;;
80409;SDS011;69746;45.596;10.154;2023-12-07T02:28:53;3.78;;;2.72;;
80409;SDS011;69746;45.596;10.154;2023-12-07T02:31:19;4.35;;;2.70;;
80409;SDS011;69746;45.596;10.154;2023-12-07T02:33:45;3.42;;;2.67;;
80409;SDS011;69746;45.596;10.154;2023-12-07T02:36:12;3.78;;;2.70;;
80409;SDS011;69746;45.596;10.154;2023-12-07T02:38:40;3.65;;;2.60;;
80409;SDS011;69746;45.596;10.154;2023-12-07T02:41:09;2.88;;;2.45;;
80409;SDS011;69746;45.596;10.154;2023-12-07T02:43:36;3.55;;;2.42;;
80409;SDS011;69746;45.596;10.154;2023-12-07T02:46:03;3.88;;;2.58;;
80409;SDS011;69746;45.596;10.154;2023-12-07T02:48:29;3.28;;;2.40;;
80409;SDS011;69746;45.596;10.154;2023-12-07T02:50:55;3.70;;;2.42;;
80409;SDS011;69746;45.596;10.154;2023-12-07T02:53:21;4.25;;;2.45;;
80409;SDS011;69746;45.596;10.154;2023-12-07T02:55:47;3.33;;;2.42;;
80409;SDS011;69746;45.596;10.154;2023-12-07T02:58:13;3.95;;;2.70;;
80409;SDS011;69746;45.596;10.154;2023-12-07T03:00:38;3.13;;;2.10;;
80409;SDS011;69746;45.596;10.154;2023-12-07T03:03:04;3.30;;;2.42;;
80409;SDS011;69746;45.596;10.154;2023-12-07T03:05:30;3.47;;;2.10;;
80409;SDS011;69746;45.596;10.154;2023-12-07T03:07:56;3.47;;;2.17;;
80409;SDS011;69746;45.596;10.154;2023-12-07T03:10:22;3.08;;;2.20;;
80409;SDS011;69746;45.596;10.154;2023-12-07T03:12:47;3.78;;;2.80;;
80409;SDS011;69746;45.596;10.154;2023-12-07T03:15:13;3.47;;;2.50;;
80409;SDS011;69746;45.596;10.154;2023-12-07T03:17:39;4.13;;;2.58;;
80409;SDS011;69746;45.596;10.154;2023-12-07T03:20:05;3.38;;;2.45;;
80409;SDS011;69746;45.596;10.154;2023-12-07T03:22:31;3.17;;;2.50;;
80409;SDS011;69746;45.596;10.154;2023-12-07T03:24:57;3.35;;;2.40;;
80409;SDS011;69746;45.596;10.154;2023-12-07T03:27:22;3.30;;;2.50;;
80409;SDS011;69746;45.596;10.154;2023-12-07T03:29:48;3.60;;;2.53;;
80409;SDS011;69746;45.596;10.154;2023-12-07T03:32:14;5.43;;;2.47;;
80409;SDS011;69746;45.596;10.154;2023-12-07T03:34:39;2.75;;;2.17;;
80409;SDS011;69746;45.596;10.154;2023-12-07T03:37:05;2.65;;;1.90;;
80409;SDS011;69746;45.596;10.154;2023-12-07T03:39:31;3.00;;;2.30;;
80409;SDS011;69746;45.596;10.154;2023-12-07T03:41:57;3.25;;;2.30;;
80409;SDS011;69746;45.596;10.154;2023-12-07T03:44:23;4.53;;;2.45;;
80409;SDS011;69746;45.596;10.154;2023-12-07T03:46:51;2.67;;;1.77;;
80409;SDS011;69746;45.596;10.154;2023-12-07T03:49:17;3.10;;;2.20;;
80409;SDS011;69746;45.596;10.154;2023-12-07T03:51:43;4.25;;;2.60;;
80409;SDS011;69746;45.596;10.154;2023-12-07T03:54:09;3.40;;;2.20;;
80409;SDS011;69746;45.596;10.154;2023-12-07T03:56:34;3.38;;;2.25;;
80409;SDS011;69746;45.596;10.154;2023-12-07T03:59:00;2.67;;;1.80;;
80409;SDS011;69746;45.596;10.154;2023-12-07T04:01:27;3.08;;;2.05;;
80409;SDS011;69746;45.596;10.154;2023-12-07T04:03:54;3.47;;;2.40;;
80409;SDS011;69746;45.596;10.154;2023-12-07T04:06:22;2.85;;;2.15;;
80409;SDS011;69746;45.596;10.154;2023-12-07T04:08:48;2.80;;;2.08;;
80409;SDS011;69746;45.596;10.154;2023-12-07T04:11:14;2.67;;;1.90;;
80409;SDS011;69746;45.596;10.154;2023-12-07T04:13:40;3.20;;;2.35;;
80409;SDS011;69746;45.596;10.154;2023-12-07T04:16:07;2.90;;;2.20;;
80409;SDS011;69746;45.596;10.154;2023-12-07T04:18:33;2.88;;;2.08;;
80409;SDS011;69746;45.596;10.154;2023-12-07T04:20:59;2.63;;;2.00;;
80409;SDS011;69746;45.596;10.154;2023-12-07T04:23:25;3.28;;;2.30;;
80409;SDS011;69746;45.596;10.154;2023-12-07T04:25:51;2.55;;;2.00;;
80409;SDS011;69746;45.596;10.154;2023-12-07T04:28:17;2.35;;;1.60;;
80409;SDS011;69746;45.596;10.154;2023-12-07T04:30:43;3.40;;;2.30;;
80409;SDS011;69746;45.596;10.154;2023-12-07T04:33:08;3.10;;;2.10;;
80409;SDS011;69746;45.596;10.154;2023-12-07T04:35:34;3.17;;;2.40;;
80409;SDS011;69746;45.596;10.154;2023-12-07T04:38:00;2.90;;;1.95;;
80409;SDS011;69746;45.596;10.154;2023-12-07T04:40:26;2.60;;;1.83;;
80409;SDS011;69746;45.596;10.154;2023-12-07T04:42:52;2.83;;;1.98;;
80409;SDS011;69746;45.596;10.154;2023-12-07T04:45:19;2.60;;;2.00;;
80409;SDS011;69746;45.596;10.154;2023-12-07T04:47:45;2.55;;;2.00;;
80409;SDS011;69746;45.596;10.154;2023-12-07T04:50:12;4.57;;;1.90;;
80409;SDS011;69746;45.596;10.154;2023-12-07T04:52:41;2.88;;;1.95;;
80409;SDS011;69746;45.596;10.154;2023-12-07T04:55:07;3.25;;;1.95;;
80409;SDS011;69746;45.596;10.154;2023-12-07T04:57:33;2.95;;;1.92;;
80409;SDS011;69746;45.596;10.154;2023-12-07T05:00:00;2.78;;;1.88;;
80409;SDS011;69746;45.596;10.154;2023-12-07T05:02:31;2.90;;;1.98;;
80409;SDS011;69746;45.596;10.154;2023-12-07T05:04:57;2.55;;;1.88;;
80409;SDS011;69746;45.596;10.154;2023-12-07T05:07:23;2.60;;;1.88;;
80409;SDS011;69746;45.596;10.154;2023-12-07T05:09:49;2.75;;;1.83;;
80409;SDS011;69746;45.596;10.154;2023-12-07T05:12:21;2.80;;;1.88;;
80409;SDS011;69746;45.596;10.154;2023-12-07T05:14:47;2.55;;;1.80;;
80409;SDS011;69746;45.596;10.154;2023-12-07T05:17:13;3.03;;;1.92;;
80409;SDS011;69746;45.596;10.154;2023-12-07T05:19:39;2.20;;;1.70;;
80409;SDS011;69746;45.596;10.154;2023-12-07T05:22:06;3.47;;;1.92;;
80409;SDS011;69746;45.596;10.154;2023-12-07T05:24:32;2.47;;;1.73;;
80409;SDS011;69746;45.596;10.154;2023-12-07T05:27:00;2.80;;;1.80;;
80409;SDS011;69746;45.596;10.154;2023-12-07T05:29:26;2.67;;;2.13;;
80409;SDS011;69746;45.596;10.154;2023-12-07T05:31:52;2.97;;;1.67;;
80409;SDS011;69746;45.596;10.154;2023-12-07T05:34:17;2.38;;;1.98;;
80409;SDS011;69746;45.596;10.154;2023-12-07T05:36:44;2.65;;;1.80;;
80409;SDS011;69746;45.596;10.154;2023-12-07T05:39:11;2.33;;;1.60;;
80409;SDS011;69746;45.596;10.154;2023-12-07T05:41:38;2.63;;;1.85;;
80409;SDS011;69746;45.596;10.154;2023-12-07T05:44:04;2.30;;;1.73;;
80409;SDS011;69746;45.596;10.154;2023-12-07T05:46:29;2.97;;;2.10;;
80409;SDS011;69746;45.596;10.154;2023-12-07T05:48:55;2.35;;;1.80;;
80409;SDS011;69746;45.596;10.154;2023-12-07T05:51:22;2.55;;;2.25;;
80409;SDS011;69746;45.596;10.154;2023-12-07T05:53:49;2.83;;;1.67;;
80409;SDS011;69746;45.596;10.154;2023-12-07T05:56:19;2.25;;;1.70;;
80409;SDS011;69746;45.596;10.154;2023-12-07T05:58:53;2.38;;;1.58;;
80409;SDS011;69746;45.596;10.154;2023-12-07T06:01:20;2.25;;;1.70;;
80409;SDS011;69746;45.596;10.154;2023-12-07T06:03:45;2.20;;;1.60;;
80409;SDS011;69746;45.596;10.154;2023-12-07T06:06:11;4.57;;;1.40;;
80409;SDS011;69746;45.596;10.154;2023-12-07T06:08:37;5.43;;;1.70;;
80409;SDS011;69746;45.596;10.154;2023-12-07T06:11:04;3.53;;;1.60;;
80409;SDS011;69746;45.596;10.154;2023-12-07T06:13:30;2.10;;;1.38;;
80409;SDS011;69746;45.596;10.154;2023-12-07T06:15:56;2.97;;;1.60;;
80409;SDS011;69746;45.596;10.154;2023-12-07T06:18:25;4.53;;;1.63;;
80409;SDS011;69746;45.596;10.154;2023-12-07T06:20:51;2.78;;;1.50;;
80409;SDS011;69746;45.596;10.154;2023-12-07T06:23:17;2.65;;;1.48;;
80409;SDS011;69746;45.596;10.154;2023-12-07T06:25:43;5.60;;;1.60;;
80409;SDS011;69746;45.596;10.154;2023-12-07T06:28:09;2.60;;;1.55;;
80409;SDS011;69746;45.596;10.154;2023-12-07T06:30:38;1.90;;;1.65;;
80409;SDS011;69746;45.596;10.154;2023-12-07T06:33:04;2.38;;;1.23;;
80409;SDS011;69746;45.596;10.154;2023-12-07T06:35:30;2.80;;;1.40;;
80409;SDS011;69746;45.596;10.154;2023-12-07T06:37:56;2.45;;;1.35;;
80409;SDS011;69746;45.596;10.154;2023-12-07T06:40:22;2.65;;;1.35;;
80409;SDS011;69746;45.596;10.154;2023-12-07T06:42:49;2.90;;;1.70;;
80409;SDS011;69746;45.596;10.154;2023-12-07T06:45:15;3.55;;;1.38;;
80409;SDS011;69746;45.596;10.154;2023-12-07T06:47:41;2.15;;;1.50;;
80409;SDS011;69746;45.596;10.154;2023-12-07T06:50:10;2.40;;;1.20;;
80409;SDS011;69746;45.596;10.154;2023-12-07T06:52:39;2.55;;;1.27;;
80409;SDS011;69746;45.596;10.154;2023-12-07T06:55:06;2.72;;;1.50;;
80409;SDS011;69746;45.596;10.154;2023-12-07T06:57:35;3.63;;;1.60;;
80409;SDS011;69746;45.596;10.154;2023-12-07T07:00:04;3.53;;;1.65;;
80409;SDS011;69746;45.596;10.154;2023-12-07T07:02:38;2.03;;;1.40;;
80409;SDS011;69746;45.596;10.154;2023-12-07T07:05:04;3.30;;;1.30;;
80409;SDS011;69746;45.596;10.154;2023-12-07T07:07:31;3.53;;;1.55;;
80409;SDS011;69746;45.596;10.154;2023-12-07T07:09:58;2.42;;;1.40;;
80409;SDS011;69746;45.596;10.154;2023-12-07T07:12:25;2.58;;;1.50;;
80409;SDS011;69746;45.596;10.154;2023-12-07T07:14:51;3.08;;;1.60;;
80409;SDS011;69746;45.596;10.154;2023-12-07T07:17:16;3.00;;;1.40;;
80409;SDS011;69746;45.596;10.154;2023-12-07T07:19:43;3.22;;;1.77;;
80409;SDS011;69746;45.596;10.154;2023-12-07T07:22:09;2.55;;;1.42;;
80409;SDS011;69746;45.596;10.154;2023-12-07T07:24:34;1.77;;;1.17;;
80409;SDS011;69746;45.596;10.154;2023-12-07T07:27:00;7.00;;;1.38;;
80409;SDS011;69746;45.596;10.154;2023-12-07T07:29:27;2.90;;;1.27;;
80409;SDS011;69746;45.596;10.154;2023-12-07T07:31:56;2.22;;;1.40;;
80409;SDS011;69746;45.596;10.154;2023-12-07T07:34:22;2.95;;;1.30;;
80409;SDS011;69746;45.596;10.154;2023-12-07T07:36:48;4.20;;;1.67;;
80409;SDS011;69746;45.596;10.154;2023-12-07T07:39:15;3.80;;;1.60;;
80409;SDS011;69746;45.596;10.154;2023-12-07T07:41:44;2.45;;;1.55;;
80409;SDS011;69746;45.596;10.154;2023-12-07T07:44:09;2.20;;;1.60;;
80409;SDS011;69746;45.596;10.154;2023-12-07T07:46:40;1.90;;;1.27;;
80409;SDS011;69746;45.596;10.154;2023-12-07T07:49:06;2.47;;;1.50;;
80409;SDS011;69746;45.596;10.154;2023-12-07T07:51:36;2.72;;;1.40;;
80409;SDS011;69746;45.596;10.154;2023-12-07T07:54:02;2.92;;;1.40;;
80409;SDS011;69746;45.596;10.154;2023-12-07T07:56:28;2.03;;;1.38;;
80409;SDS011;69746;45.596;10.154;2023-12-07T07:58:54;2.20;;;1.38;;
80409;SDS011;69746;45.596;10.154;2023-12-07T08:01:23;3.13;;;1.48;;
80409;SDS011;69746;45.596;10.154;2023-12-07T08:03:50;2.90;;;1.48;;
80409;SDS011;69746;45.596;10.154;2023-12-07T08:06:16;1.95;;;1.15;;
80409;SDS011;69746;45.596;10.154;2023-12-07T08:08:43;2.60;;;1.55;;
80409;SDS011;69746;45.596;10.154;2023-12-07T08:11:14;2.35;;;1.50;;
80409;SDS011;69746;45.596;10.154;2023-12-07T08:13:40;1.77;;;1.10;;
80409;SDS011;69746;45.596;10.154;2023-12-07T08:16:09;2.55;;;1.42;;
80409;SDS011;69746;45.596;10.154;2023-12-07T08:18:35;1.92;;;1.15;;
80409;SDS011;69746;45.596;10.154;2023-12-07T08:21:01;1.88;;;1.42;;
80409;SDS011;69746;45.596;10.154;2023-12-07T08:23:30;2.22;;;1.50;;
80409;SDS011;69746;45.596;10.154;2023-12-07T08:25:57;2.03;;;1.27;;
80409;SDS011;69746;45.596;10.154;2023-12-07T08:28:23;2.63;;;1.40;;
80409;SDS011;69746;45.596;10.154;2023-12-07T08:30:49;2.58;;;1.50;;
80409;SDS011;69746;45.596;10.154;2023-12-07T08:33:15;2.00;;;1.48;;
80409;SDS011;69746;45.596;10.154;2023-12-07T08:35:43;2.60;;;1.58;;
80409;SDS011;69746;45.596;10.154;2023-12-07T08:38:09;2.47;;;1.40;;
80409;SDS011;69746;45.596;10.154;2023-12-07T08:40:38;3.50;;;1.23;;
80409;SDS011;69746;45.596;10.154;2023-12-07T08:43:05;1.92;;;1.23;;
80409;SDS011;69746;45.596;10.154;2023-12-07T08:45:31;1.95;;;1.40;;
80409;SDS011;69746;45.596;10.154;2023-12-07T08:47:58;3.53;;;1.30;;
80409;SDS011;69746;45.596;10.154;2023-12-07T08:50:24;2.90;;;1.23;;
80409;SDS011;69746;45.596;10.154;2023-12-07T08:52:53;2.70;;;1.33;;
80409;SDS011;69746;45.596;10.154;2023-12-07T08:55:20;1.88;;;1.30;;
80409;SDS011;69746;45.596;10.154;2023-12-07T08:57:46;2.30;;;1.42;;
80409;SDS011;69746;45.596;10.154;2023-12-07T09:00:12;1.92;;;1.20;;
80409;SDS011;69746;45.596;10.154;2023-12-07T09:02:38;2.08;;;1.42;;
80409;SDS011;69746;45.596;10.154;2023-12-07T09:05:05;2.38;;;1.40;;
80409;SDS011;69746;45.596;10.154;2023-12-07T09:07:33;1.70;;;1.20;;
80409;SDS011;69746;45.596;10.154;2023-12-07T09:09:59;2.10;;;1.38;;
80409;SDS011;69746;45.596;10.154;2023-12-07T09:12:25;2.40;;;1.50;;
80409;SDS011;69746;45.596;10.154;2023-12-07T09:14:52;2.25;;;1.40;;
80409;SDS011;69746;45.596;10.154;2023-12-07T09:17:19;1.98;;;1.30;;
80409;SDS011;69746;45.596;10.154;2023-12-07T09:19:46;1.90;;;1.33;;
80409;SDS011;69746;45.596;10.154;2023-12-07T09:22:12;1.65;;;1.20;;
80409;SDS011;69746;45.596;10.154;2023-12-07T09:24:39;1.77;;;1.40;;
80409;SDS011;69746;45.596;10.154;2023-12-07T09:27:06;2.15;;;1.20;;
80409;SDS011;69746;45.596;10.154;2023-12-07T09:29:32;1.83;;;1.10;;
80409;SDS011;69746;45.596;10.154;2023-12-07T09:31:58;2.00;;;1.40;;
80409;SDS011;69746;45.596;10.154;2023-12-07T09:34:24;2.20;;;1.17;;
80409;SDS011;69746;45.596;10.154;2023-12-07T09:37:04;2.50;;;1.30;;
80409;SDS011;69746;45.596;10.154;2023-12-07T09:39:32;1.80;;;0.93;;
80409;SDS011;69746;45.596;10.154;2023-12-07T09:41:58;2.08;;;1.38;;
80409;SDS011;69746;45.596;10.154;2023-12-07T09:44:24;1.85;;;1.17;;
80409;SDS011;69746;45.596;10.154;2023-12-07T09:46:51;1.90;;;1.17;;
80409;SDS011;69746;45.596;10.154;2023-12-07T09:49:17;2.10;;;1.05;;
80409;SDS011;69746;45.596;10.154;2023-12-07T09:51:44;2.13;;;1.33;;
80409;SDS011;69746;45.596;10.154;2023-12-07T09:54:12;2.25;;;1.25;;
80409;SDS011;69746;45.596;10.154;2023-12-07T09:56:38;2.78;;;1.42;;
80409;SDS011;69746;45.596;10.154;2023-12-07T09:59:06;1.63;;;1.25;;
80409;SDS011;69746;45.596;10.154;2023-12-07T10:01:35;2.20;;;1.20;;
80409;SDS011;69746;45.596;10.154;2023-12-07T10:04:20;3.53;;;1.27;;
80409;SDS011;69746;45.596;10.154;2023-12-07T10:06:52;1.90;;;1.33;;
80409;SDS011;69746;45.596;10.154;2023-12-07T10:11:50;2.10;;;1.50;;
80409;SDS011;69746;45.596;10.154;2023-12-07T10:14:29;2.28;;;1.40;;
80409;SDS011;69746;45.596;10.154;2023-12-07T10:16:57;3.30;;;1.20;;
80409;SDS011;69746;45.596;10.154;2023-12-07T10:19:25;1.90;;;1.40;;
80409;SDS011;69746;45.596;10.154;2023-12-07T10:21:53;1.55;;;1.08;;
80409;SDS011;69746;45.596;10.154;2023-12-07T10:24:20;2.45;;;1.30;;
80409;SDS011;69746;45.596;10.154;2023-12-07T10:26:48;1.92;;;1.30;;
80409;SDS011;69746;45.596;10.154;2023-12-07T10:29:18;2.28;;;1.42;;
80409;SDS011;69746;45.596;10.154;2023-12-07T10:31:48;1.63;;;1.10;;
80409;SDS011;69746;45.596;10.154;2023-12-07T10:34:18;2.10;;;1.13;;
80409;SDS011;69746;45.596;10.154;2023-12-07T10:36:46;1.75;;;1.20;;
80409;SDS011;69746;45.596;10.154;2023-12-07T10:39:15;2.17;;;1.20;;
80409;SDS011;69746;45.596;10.154;2023-12-07T10:41:43;1.95;;;1.15;;
80409;SDS011;69746;45.596;10.154;2023-12-07T10:44:13;1.90;;;1.23;;
80409;SDS011;69746;45.596;10.154;2023-12-07T10:46:42;1.85;;;1.30;;
80409;SDS011;69746;45.596;10.154;2023-12-07T10:49:11;2.28;;;1.40;;
80409;SDS011;69746;45.596;10.154;2023-12-07T10:51:57;2.50;;;1.13;;
80409;SDS011;69746;45.596;10.154;2023-12-07T10:54:38;1.73;;;1.30;;
80409;SDS011;69746;45.596;10.154;2023-12-07T10:57:17;2.00;;;1.00;;
80409;SDS011;69746;45.596;10.154;2023-12-07T10:59:47;2.22;;;1.40;;
80409;SDS011;69746;45.596;10.154;2023-12-07T11:02:15;2.17;;;1.20;;
80409;SDS011;69746;45.596;10.154;2023-12-07T11:04:46;3.47;;;1.33;;
80409;SDS011;69746;45.596;10.154;2023-12-07T11:07:20;1.83;;;1.13;;
80409;SDS011;69746;45.596;10.154;2023-12-07T11:10:00;2.22;;;1.52;;
80409;SDS011;69746;45.596;10.154;2023-12-07T11:12:49;2.03;;;1.48;;
80409;SDS011;69746;45.596;10.154;2023-12-07T11:15:21;2.65;;;1.25;;
80409;SDS011;69746;45.596;10.154;2023-12-07T11:17:50;2.00;;;1.20;;
80409;SDS011;69746;45.596;10.154;2023-12-07T11:20:22;1.80;;;1.13;;
80409;SDS011;69746;45.596;10.154;2023-12-07T11:22:59;2.67;;;1.25;;
80409;SDS011;69746;45.596;10.154;2023-12-07T11:25:25;1.83;;;1.20;;
80409;SDS011;69746;45.596;10.154;2023-12-07T11:28:10;1.77;;;1.20;;
80409;SDS011;69746;45.596;10.154;2023-12-07T11:30:41;2.17;;;1.25;;
80409;SDS011;69746;45.596;10.154;2023-12-07T11:33:08;2.38;;;1.35;;
80409;SDS011;69746;45.596;10.154;2023-12-07T11:38:31;1.92;;;1.30;;
80409;SDS011;69746;45.596;10.154;2023-12-07T11:41:00;2.13;;;1.05;;
80409;SDS011;69746;45.596;10.154;2023-12-07T11:46:09;2.30;;;1.30;;
80409;SDS011;69746;45.596;10.154;2023-12-07T11:48:38;1.80;;;1.17;;
80409;SDS011;69746;45.596;10.154;2023-12-07T11:53:49;1.98;;;1.30;;
80409;SDS011;69746;45.596;10.154;2023-12-07T11:56:15;1.80;;;1.10;;
80409;SDS011;69746;45.596;10.154;2023-12-07T11:58:46;1.80;;;1.20;;
80409;SDS011;69746;45.596;10.154;2023-12-07T12:01:16;2.22;;;1.35;;
80409;SDS011;69746;45.596;10.154;2023-12-07T12:03:42;1.70;;;1.30;;
80409;SDS011;69746;45.596;10.154;2023-12-07T12:06:09;1.77;;;1.10;;
80409;SDS011;69746;45.596;10.154;2023-12-07T12:11:02;1.60;;;1.30;;
80409;SDS011;69746;45.596;10.154;2023-12-07T12:13:30;2.75;;;1.20;;
80409;SDS011;69746;45.596;10.154;2023-12-07T12:15:59;1.80;;;1.20;;
80409;SDS011;69746;45.596;10.154;2023-12-07T12:18:28;1.90;;;1.30;;
80409;SDS011;69746;45.596;10.154;2023-12-07T12:20:55;2.33;;;1.30;;
80409;SDS011;69746;45.596;10.154;2023-12-07T12:23:24;2.05;;;1.23;;
80409;SDS011;69746;45.596;10.154;2023-12-07T12:25:50;1.70;;;1.10;;
80409;SDS011;69746;45.596;10.154;2023-12-07T12:28:18;1.73;;;1.13;;
80409;SDS011;69746;45.596;10.154;2023-12-07T12:30:50;1.80;;;1.30;;
80409;SDS011;69746;45.596;10.154;2023-12-07T12:33:17;1.73;;;1.20;;
80409;SDS011;69746;45.596;10.154;2023-12-07T12:35:43;2.65;;;1.45;;
80409;SDS011;69746;45.596;10.154;2023-12-07T12:38:10;1.77;;;1.45;;
80409;SDS011;69746;45.596;10.154;2023-12-07T12:40:39;1.70;;;1.15;;
80409;SDS011;69746;45.596;10.154;2023-12-07T12:43:08;2.42;;;1.30;;
80409;SDS011;69746;45.596;10.154;2023-12-07T12:45:37;1.60;;;1.00;;
80409;SDS011;69746;45.596;10.154;2023-12-07T12:48:04;2.22;;;1.10;;
80409;SDS011;69746;45.596;10.154;2023-12-07T12:50:37;2.13;;;1.00;;
80409;SDS011;69746;45.596;10.154;2023-12-07T12:53:06;2.03;;;1.30;;
80409;SDS011;69746;45.596;10.154;2023-12-07T12:55:35;1.70;;;1.17;;
80409;SDS011;69746;45.596;10.154;2023-12-07T12:58:06;1.67;;;0.98;;
80409;SDS011;69746;45.596;10.154;2023-12-07T13:03:05;1.83;;;1.13;;
80409;SDS011;69746;45.596;10.154;2023-12-07T13:05:32;1.40;;;1.13;;
80409;SDS011;69746;45.596;10.154;2023-12-07T13:08:02;2.17;;;1.35;;
80409;SDS011;69746;45.596;10.154;2023-12-07T13:10:28;1.80;;;1.10;;
80409;SDS011;69746;45.596;10.154;2023-12-07T13:12:56;2.28;;;1.10;;
80409;SDS011;69746;45.596;10.154;2023-12-07T13:17:48;2.30;;;1.08;;
80409;SDS011;69746;45.596;10.154;2023-12-07T13:20:14;1.88;;;1.00;;
80409;SDS011;69746;45.596;10.154;2023-12-07T13:22:40;2.22;;;1.35;;
80409;SDS011;69746;45.596;10.154;2023-12-07T13:25:12;1.60;;;1.00;;
80409;SDS011;69746;45.596;10.154;2023-12-07T13:27:40;1.90;;;1.23;;
80409;SDS011;69746;45.596;10.154;2023-12-07T13:30:06;1.70;;;1.20;;
80409;SDS011;69746;45.596;10.154;2023-12-07T13:32:36;1.80;;;1.02;;
80409;SDS011;69746;45.596;10.154;2023-12-07T13:35:02;1.85;;;1.40;;
80409;SDS011;69746;45.596;10.154;2023-12-07T13:37:30;1.80;;;1.35;;
80409;SDS011;69746;45.596;10.154;2023-12-07T13:39:56;2.17;;;1.38;;
80409;SDS011;69746;45.596;10.154;2023-12-07T13:42:26;1.70;;;1.10;;
80409;SDS011;69746;45.596;10.154;2023-12-07T13:44:53;2.50;;;1.45;;
80409;SDS011;69746;45.596;10.154;2023-12-07T13:47:23;2.17;;;1.13;;
80409;SDS011;69746;45.596;10.154;2023-12-07T13:49:55;1.83;;;1.10;;
80409;SDS011;69746;45.596;10.154;2023-12-07T13:54:48;1.85;;;1.10;;
80409;SDS011;69746;45.596;10.154;2023-12-07T13:57:14;2.20;;;1.20;;
80409;SDS011;69746;45.596;10.154;2023-12-07T13:59:41;1.92;;;1.17;;
80409;SDS011;69746;45.596;10.154;2023-12-07T14:02:07;1.98;;;1.10;;
80409;SDS011;69746;45.596;10.154;2023-12-07T14:04:34;2.25;;;1.10;;
80409;SDS011;69746;45.596;10.154;2023-12-07T14:07:13;2.20;;;1.30;;
80409;SDS011;69746;45.596;10.154;2023-12-07T14:09:43;1.90;;;1.13;;
80409;SDS011;69746;45.596;10.154;2023-12-07T14:12:15;2.47;;;1.30;;
80409;SDS011;69746;45.596;10.154;2023-12-07T14:14:47;1.83;;;1.33;;
80409;SDS011;69746;45.596;10.154;2023-12-07T14:17:14;1.50;;;0.88;;
80409;SDS011;69746;45.596;10.154;2023-12-07T14:19:46;2.15;;;1.20;;
80409;SDS011;69746;45.596;10.154;2023-12-07T14:22:13;2.10;;;1.20;;
80409;SDS011;69746;45.596;10.154;2023-12-07T14:24:39;1.55;;;1.00;;
80409;SDS011;69746;45.596;10.154;2023-12-07T14:27:06;1.83;;;1.25;;
80409;SDS011;69746;45.596;10.154;2023-12-07T14:29:34;2.17;;;1.50;;
80409;SDS011;69746;45.596;10.154;2023-12-07T14:32:00;1.90;;;1.25;;
80409;SDS011;69746;45.596;10.154;2023-12-07T14:34:26;2.10;;;1.20;;
80409;SDS011;69746;45.596;10.154;2023-12-07T14:36:55;1.80;;;1.20;;
80409;SDS011;69746;45.596;10.154;2023-12-07T14:39:21;1.73;;;1.25;;
80409;SDS011;69746;45.596;10.154;2023-12-07T14:41:47;1.80;;;1.17;;
80409;SDS011;69746;45.596;10.154;2023-12-07T14:44:16;2.05;;;1.40;;
80409;SDS011;69746;45.596;10.154;2023-12-07T14:46:46;2.20;;;1.33;;
80409;SDS011;69746;45.596;10.154;2023-12-07T14:49:14;2.00;;;1.20;;
80409;SDS011;69746;45.596;10.154;2023-12-07T14:51:42;2.10;;;1.38;;
80409;SDS011;69746;45.596;10.154;2023-12-07T14:54:08;2.20;;;1.35;;
80409;SDS011;69746;45.596;10.154;2023-12-07T14:56:38;2.35;;;1.27;;
80409;SDS011;69746;45.596;10.154;2023-12-07T14:59:04;1.33;;;1.08;;
80409;SDS011;69746;45.596;10.154;2023-12-07T15:01:31;2.00;;;1.25;;
80409;SDS011;69746;45.596;10.154;2023-12-07T15:03:57;2.05;;;1.20;;